Time;durP1;ratioP1;P1;durP2;ratioP2;P2;SDS_P1;SDS_P2;PMS_P1;PMS_P2;Temp;Humidity;BMP_temperature;BMP_pressure;BME280_temperature;BME280_humidity;BME280_pressure;Samples;Min_cycle;Max_cycle;Signal;HPM_P1;HPM_P2
2022/01/30 00:00:37;;;;;;;9.38;8.88;;;;;;;-1.77;58.90;100454.78;5008409;28;20477;-64
2022/01/30 00:03:02;;;;;;;9.43;8.88;;;;;;;-1.69;58.42;100468.13;5007255;28;20040;-65
2022/01/30 00:05:30;;;;;;;9.00;8.50;;;;;;;-1.68;58.28;100464.63;5008897;28;20029;-64
2022/01/30 00:07:56;;;;;;;9.77;9.18;;;;;;;-1.67;57.60;100459.31;5009113;28;20025;-64
2022/01/30 00:10:22;;;;;;;9.10;8.60;;;;;;;-1.64;57.76;100458.28;5008405;28;20030;-64
2022/01/30 00:12:56;;;;;;;9.57;8.98;;;;;;;-1.57;56.69;100437.91;5006610;28;20135;-64
2022/01/30 00:15:38;;;;;;;8.65;8.25;;;;;;;-1.53;56.28;100445.44;5010333;28;20282;-64
2022/01/30 00:18:55;;;;;;;8.40;8.00;;;;;;;-1.51;55.81;100430.56;4993646;28;20476;-64
2022/01/30 00:23:55;;;;;;;8.82;8.32;;;;;;;-1.40;56.47;100401.22;4976347;28;20053;-64
2022/01/30 00:26:21;;;;;;;8.57;8.18;;;;;;;-1.39;55.18;100402.91;5008903;28;20049;-64
2022/01/30 00:28:46;;;;;;;9.45;8.90;;;;;;;-1.37;55.45;100390.63;5010412;28;20042;-64
2022/01/30 00:31:14;;;;;;;8.52;8.10;;;;;;;-1.36;55.62;100381.88;5005977;28;20614;-64
2022/01/30 00:33:40;;;;;;;8.40;8.00;;;;;;;-1.34;55.40;100373.97;5010159;28;20072;-65
2022/01/30 00:36:05;;;;;;;9.77;9.15;;;;;;;-1.29;55.38;100382.31;5008396;28;20060;-64
2022/01/30 00:38:33;;;;;;;9.23;8.73;;;;;;;-1.32;55.30;100377.28;5008879;28;20029;-63
2022/01/30 00:40:58;;;;;;;9.48;8.93;;;;;;;-1.31;55.29;100359.00;4992307;28;20063;-64
2022/01/30 00:43:23;;;;;;;8.40;8.00;;;;;;;-1.32;54.62;100359.06;5006336;28;20108;-64
2022/01/30 00:45:49;;;;;;;9.13;8.63;;;;;;;-1.54;55.47;100320.66;5008665;28;20083;-65
2022/01/30 00:48:15;;;;;;;8.93;8.45;;;;;;;-1.36;55.32;100344.63;5008266;28;20036;-63
2022/01/30 00:50:40;;;;;;;8.90;8.45;;;;;;;-1.36;55.45;100336.81;5007389;28;20433;-64
2022/01/30 00:53:06;;;;;;;9.55;8.95;;;;;;;-1.34;55.36;100330.56;5007908;28;20030;-64
2022/01/30 00:55:31;;;;;;;8.43;8.02;;;;;;;-1.32;54.95;100317.44;5010459;28;20467;-64
2022/01/30 00:57:58;;;;;;;8.95;8.45;;;;;;;-1.34;55.19;100309.75;5005260;28;20105;-63
2022/01/30 01:00:25;;;;;;;9.30;8.80;;;;;;;-1.32;55.06;100305.28;5010918;28;20117;-64
2022/01/30 01:02:51;;;;;;;9.13;8.63;;;;;;;-1.28;55.38;100295.50;5005939;28;20030;-64
2022/01/30 01:05:18;;;;;;;8.75;8.30;;;;;;;-1.19;54.63;100281.84;5005151;28;20683;-65
2022/01/30 01:07:50;;;;;;;9.65;9.07;;;;;;;-1.21;54.50;100270.72;5009971;28;20022;-64
2022/01/30 01:10:46;;;;;;;8.73;8.30;;;;;;;-1.17;54.76;100272.19;5010338;28;20116;-64
2022/01/30 01:23:53;;;;;;;;;;;;;;;-0.85;53.19;100246.50;5004624;28;20555;-64
2022/01/30 01:26:21;;;;;;;8.93;8.43;;;;;;;-0.79;53.66;100250.44;5008780;28;20328;-63
2022/01/30 01:28:47;;;;;;;8.55;8.07;;;;;;;-0.75;53.23;100247.50;5006478;28;20100;-63
2022/01/30 01:31:13;;;;;;;8.88;8.38;;;;;;;-0.69;53.02;100247.06;5005731;28;20497;-63
2022/01/30 01:34:41;;;;;;;8.40;8.00;;;;;;;-0.66;53.31;100246.84;5007677;28;20128;-63
2022/01/30 01:36:34;;;;;;;8.00;7.60;;;;;;;-0.58;53.17;100241.94;4992906;28;20130;-64
2022/01/30 01:38:59;;;;;;;9.35;8.80;;;;;;;-0.56;53.17;100228.78;5006855;28;20045;-63
2022/01/30 01:41:27;;;;;;;9.10;8.60;;;;;;;-0.52;53.01;100234.59;5007012;28;20034;-63
2022/01/30 01:43:52;;;;;;;8.50;8.10;;;;;;;-0.51;53.03;100229.28;5003333;28;20021;-63
2022/01/30 01:46:24;;;;;;;8.60;8.15;;;;;;;-0.46;52.83;100223.72;5009442;28;20076;-62
2022/01/30 01:48:52;;;;;;;9.45;8.85;;;;;;;-0.44;53.01;100212.28;5008018;28;20037;-63
2022/01/30 01:51:21;;;;;;;8.20;7.80;;;;;;;-0.40;53.40;100216.28;5008653;28;20165;-62
2022/01/30 01:53:51;;;;;;;9.73;9.10;;;;;;;-0.37;52.57;100204.81;5005269;28;20413;-64
2022/01/30 01:56:19;;;;;;;9.00;8.50;;;;;;;-0.42;53.29;100186.09;5004388;28;20069;-64
2022/01/30 01:58:45;;;;;;;8.75;8.25;;;;;;;-0.38;53.00;100188.34;5009202;28;20026;-63
2022/01/30 02:01:11;;;;;;;9.05;8.55;;;;;;;-0.41;52.69;100185.97;5008344;28;20032;-62
2022/01/30 02:03:38;;;;;;;9.68;9.07;;;;;;;-0.36;53.28;100191.69;5007265;28;20420;-63
2022/01/30 02:06:09;;;;;;;8.50;8.10;;;;;;;-0.31;53.70;100181.72;5006512;28;20440;-62
2022/01/30 02:08:44;;;;;;;8.85;8.35;;;;;;;-0.30;53.56;100178.19;5002857;28;20559;-63
2022/01/30 02:11:42;;;;;;;8.32;7.93;;;;;;;-0.26;52.93;100173.59;5003246;28;20079;-64
2022/01/30 02:27:36;;;;;;;9.18;8.68;;;;;;;-0.15;53.26;100157.13;5012570;28;20163;-63
2022/01/30 02:30:15;;;;;;;8.95;8.45;;;;;;;-0.11;53.25;100146.38;5010134;28;20486;-63
2022/01/30 02:32:41;;;;;;;8.82;8.32;;;;;;;-0.14;53.25;100136.19;5011803;28;20034;-63
2022/01/30 02:35:07;;;;;;;8.90;8.40;;;;;;;-0.09;53.55;100131.44;5007188;28;20473;-63
2022/01/30 02:37:34;;;;;;;9.50;8.90;;;;;;;-0.06;53.39;100131.22;5010849;28;20072;-63
2022/01/30 02:40:00;;;;;;;8.93;8.43;;;;;;;-0.08;52.91;100124.44;5009414;28;20040;-63
2022/01/30 02:42:30;;;;;;;8.35;7.95;;;;;;;-0.02;53.31;100123.97;4994006;28;20030;-63
2022/01/30 02:44:59;;;;;;;8.40;8.00;;;;;;;0.04;52.73;100123.50;5013591;28;20500;-63
2022/01/30 02:48:14;;;;;;;8.48;8.07;;;;;;;0.07;53.04;100128.47;5010991;28;22397;-63
2022/01/30 02:50:21;;;;;;;9.50;8.90;;;;;;;0.04;52.93;100125.28;4996761;28;20069;-63
2022/01/30 02:52:56;;;;;;;8.50;8.10;;;;;;;0.06;53.66;100119.00;5004777;28;20512;-63
2022/01/30 02:55:21;;;;;;;8.07;7.68;;;;;;;0.06;53.33;100116.38;5007647;28;20157;-63
2022/01/30 02:57:47;;;;;;;8.13;7.72;;;;;;;-0.04;53.59;100094.59;5006022;28;20684;-63
2022/01/30 03:00:13;;;;;;;9.07;8.55;;;;;;;0.00;53.62;100101.25;5013549;28;20045;-64
2022/01/30 03:02:38;;;;;;;8.40;8.00;;;;;;;0.02;54.31;100096.72;5014476;28;20036;-64
2022/01/30 03:05:04;;;;;;;8.20;7.80;;;;;;;0.02;53.88;100096.72;5011672;28;20031;-63
2022/01/30 03:07:30;;;;;;;8.93;8.43;;;;;;;0.00;54.43;100093.41;5011431;28;20030;-62
2022/01/30 03:09:55;;;;;;;8.57;8.13;;;;;;;-0.03;54.44;100085.81;5007674;28;20052;-63
2022/01/30 03:12:21;;;;;;;8.65;8.20;;;;;;;-0.02;54.45;100087.47;5009724;28;20034;-64
2022/01/30 03:14:47;;;;;;;8.93;8.43;;;;;;;0.05;54.91;100087.81;5011651;28;20610;-64
2022/01/30 03:17:13;;;;;;;9.68;9.07;;;;;;;0.01;56.03;100083.81;5011242;28;20034;-64
2022/01/30 03:19:39;;;;;;;8.30;7.90;;;;;;;-0.04;57.81;100090.19;5012170;28;20448;-63
2022/01/30 03:22:04;;;;;;;8.85;8.35;;;;;;;-0.04;59.03;100081.56;5011003;28;20034;-62
2022/01/30 03:24:35;;;;;;;8.52;8.13;;;;;;;-0.20;66.26;100076.69;5008609;28;20103;-63
2022/01/30 03:27:00;;;;;;;8.02;7.63;;;;;;;-0.25;69.21;100067.53;4996847;28;20540;-63
2022/01/30 03:29:26;;;;;;;8.75;8.25;;;;;;;-0.24;69.78;100058.78;5010383;28;20157;-64
2022/01/30 03:31:51;;;;;;;8.23;7.82;;;;;;;-0.59;74.86;100041.41;5011038;28;20038;-62
2022/01/30 03:34:17;;;;;;;9.45;8.88;;;;;;;-0.69;80.14;100040.47;5011166;28;20026;-62
2022/01/30 03:36:43;;;;;;;8.35;7.95;;;;;;;-0.80;82.69;100028.25;5010069;28;20045;-62
2022/01/30 03:39:08;;;;;;;9.93;9.32;;;;;;;-1.01;85.57;100009.84;5009432;28;20041;-63
2022/01/30 03:41:35;;;;;;;9.15;8.65;;;;;;;-1.04;88.21;100006.63;5010516;28;20033;-64
2022/01/30 03:44:00;;;;;;;9.07;8.57;;;;;;;-1.09;89.57;99999.16;5010851;28;20049;-63
2022/01/30 03:46:28;;;;;;;9.70;9.10;;;;;;;-1.14;91.93;99989.09;5004145;28;20041;-63
2022/01/30 03:48:54;;;;;;;9.85;9.25;;;;;;;-1.15;95.16;99978.78;5009202;28;20029;-63
2022/01/30 03:51:19;;;;;;;9.20;8.70;;;;;;;-1.22;98.40;99969.78;5009170;28;20629;-63
2022/01/30 03:53:44;;;;;;;9.90;9.30;;;;;;;-1.26;100.00;99963.97;5010284;28;20042;-63
2022/01/30 03:56:11;;;;;;;9.00;8.50;;;;;;;-1.32;100.00;99967.03;5008153;28;20038;-63
2022/01/30 03:58:40;;;;;;;9.55;9.02;;;;;;;-1.30;100.00;99962.53;5012067;28;20028;-63
2022/01/30 04:01:05;;;;;;;8.82;8.43;;;;;;;-1.32;100.00;99964.44;5011235;28;20033;-63
2022/01/30 04:03:32;;;;;;;9.27;8.77;;;;;;;-1.32;100.00;99963.56;5006438;28;20014;-63
2022/01/30 04:05:57;;;;;;;8.70;8.30;;;;;;;-1.24;100.00;99972.50;5026654;28;20025;-64
2022/01/30 04:08:23;;;;;;;9.40;8.90;;;;;;;-1.26;100.00;99960.53;5007952;28;20083;-64
2022/01/30 04:10:49;;;;;;;9.68;9.18;;;;;;;-1.24;100.00;99951.69;5008641;28;20049;-62
2022/01/30 04:13:14;;;;;;;9.52;9.02;;;;;;;-1.22;100.00;99947.19;5009666;28;20555;-62
2022/01/30 04:15:40;;;;;;;8.95;8.45;;;;;;;-1.19;100.00;99943.53;5011526;28;20022;-64
2022/01/30 04:18:06;;;;;;;9.05;8.55;;;;;;;-1.18;100.00;99937.38;5011726;28;20591;-63
2022/01/30 04:20:32;;;;;;;9.30;8.80;;;;;;;-1.19;100.00;99933.94;5009791;28;20026;-66
2022/01/30 04:22:58;;;;;;;10.07;9.45;;;;;;;-1.21;100.00;99917.63;5008199;28;20036;-63
2022/01/30 04:25:24;;;;;;;9.32;8.82;;;;;;;-1.23;100.00;99905.69;5010733;28;20488;-63
2022/01/30 04:27:50;;;;;;;9.40;8.90;;;;;;;-1.17;100.00;99913.03;5009873;28;20362;-63
2022/01/30 04:30:16;;;;;;;9.15;8.65;;;;;;;-1.26;100.00;99880.69;5007957;28;20064;-63
2022/01/30 04:32:43;;;;;;;8.73;8.32;;;;;;;-1.21;100.00;99890.78;5009614;28;20087;-62
2022/01/30 04:35:16;;;;;;;9.55;9.05;;;;;;;-1.30;100.00;99866.28;5008579;28;20029;-65
2022/01/30 04:59:09;;;;;;;9.63;9.02;;;;;;;-0.97;100.00;99800.38;5019377;28;20080;-64
2022/01/30 05:04:42;;;;;;;9.00;8.50;;;;;;;-0.80;100.00;99811.28;5007597;28;20076;-63
2022/01/30 05:09:34;;;;;;;8.40;8.00;;;;;;;-0.70;100.00;99804.41;4988132;28;20149;-63
2022/01/30 05:11:59;;;;;;;10.30;9.60;;;;;;;-0.71;100.00;99798.38;4983704;28;21654;-63
2022/01/30 05:14:31;;;;;;;9.10;8.60;;;;;;;-0.66;100.00;99793.63;4990458;28;20037;-64
2022/01/30 05:16:59;;;;;;;8.73;8.23;;;;;;;-0.66;100.00;99791.03;4987606;28;20038;-64
2022/01/30 05:19:26;;;;;;;9.38;8.77;;;;;;;-0.65;100.00;99787.47;4987749;28;20525;-64
2022/01/30 05:21:53;;;;;;;8.30;7.90;;;;;;;-0.71;100.00;99776.72;4990753;28;20042;-63
2022/01/30 05:24:18;;;;;;;9.10;8.60;;;;;;;-0.63;100.00;99792.56;4988825;28;20130;-63
2022/01/30 05:26:45;;;;;;;8.90;8.40;;;;;;;-0.58;100.00;99790.44;4987072;28;20058;-63
2022/01/30 05:29:11;;;;;;;9.00;8.50;;;;;;;-0.62;100.00;99784.63;4970481;28;20104;-63
2022/01/30 05:31:37;;;;;;;8.63;8.18;;;;;;;-0.53;100.00;99793.47;4987103;28;20153;-64
2022/01/30 05:34:03;;;;;;;8.93;8.43;;;;;;;-0.52;100.00;99786.47;4986819;28;20414;-62
2022/01/30 05:36:30;;;;;;;9.38;8.77;;;;;;;-0.53;100.00;99780.44;4984328;28;20034;-63
2022/01/30 05:38:56;;;;;;;8.55;8.10;;;;;;;-0.54;100.00;99785.78;4991149;28;20038;-63
2022/01/30 05:41:22;;;;;;;9.27;8.73;;;;;;;-0.53;100.00;99790.88;5003625;28;20038;-64
2022/01/30 05:43:52;;;;;;;8.20;7.80;;;;;;;-0.55;100.00;99784.97;5008280;28;20025;-64
2022/01/30 05:46:30;;;;;;;9.45;8.85;;;;;;;-0.46;100.00;99767.75;5007105;28;20026;-64
2022/01/30 05:48:56;;;;;;;8.70;8.20;;;;;;;-0.44;100.00;99778.88;5008621;28;20032;-62
2022/01/30 05:51:21;;;;;;;9.95;9.35;;;;;;;-0.42;100.00;99772.63;4991721;28;20397;-63
2022/01/30 05:53:48;;;;;;;8.57;8.10;;;;;;;-0.35;100.00;99776.38;5004963;28;20045;-63
2022/01/30 05:56:13;;;;;;;8.60;8.15;;;;;;;-0.32;100.00;99781.34;5010405;28;20022;-63
2022/01/30 05:58:40;;;;;;;9.90;9.30;;;;;;;-0.27;100.00;99780.97;5005408;28;20036;-63
2022/01/30 06:01:06;;;;;;;8.13;7.72;;;;;;;-0.31;100.00;99777.78;5007295;28;20032;-62
2022/01/30 06:03:31;;;;;;;8.95;8.45;;;;;;;-0.31;100.00;99779.56;4989310;28;20037;-62
2022/01/30 06:05:57;;;;;;;9.02;8.52;;;;;;;-0.26;100.00;99772.19;5004957;28;20409;-63
2022/01/30 06:11:07;;;;;;;9.25;8.73;;;;;;;-0.19;100.00;99775.97;5007861;28;20068;-64
2022/01/30 06:13:33;;;;;;;11.55;10.68;;;;;;;-0.24;100.00;99769.47;5003842;28;20489;-64
2022/01/30 06:15:59;;;;;;;8.75;8.25;;;;;;;-0.14;100.00;99767.78;4986722;28;20042;-64
2022/01/30 06:18:25;;;;;;;9.00;8.50;;;;;;;-0.10;100.00;99780.44;5005850;28;20043;-64
2022/01/30 06:20:53;;;;;;;8.30;7.90;;;;;;;-0.13;100.00;99774.66;5007195;28;20117;-64
2022/01/30 06:23:18;;;;;;;8.88;8.38;;;;;;;-0.10;100.00;99772.59;5007766;28;20037;-63
2022/01/30 06:25:44;;;;;;;8.75;8.25;;;;;;;-0.07;100.00;99772.38;5009848;28;20042;-63
2022/01/30 06:28:09;;;;;;;9.20;8.65;;;;;;;0.02;100.00;99764.75;5006942;28;20084;-64
2022/01/30 06:30:35;;;;;;;8.45;8.05;;;;;;;0.02;100.00;99767.34;5004409;28;20386;-62
2022/01/30 06:33:00;;;;;;;8.73;8.23;;;;;;;0.12;100.00;99763.84;5004161;28;20057;-64
2022/01/30 06:35:26;;;;;;;9.13;8.63;;;;;;;0.11;100.00;99763.97;5004616;28;20085;-63
2022/01/30 06:37:51;;;;;;;8.52;8.13;;;;;;;0.11;100.00;99746.56;5007776;28;20467;-63
2022/01/30 06:40:18;;;;;;;9.07;8.55;;;;;;;0.14;100.00;99728.03;5007450;28;20036;-63
2022/01/30 06:42:45;;;;;;;8.63;8.15;;;;;;;0.20;100.00;99732.75;5007121;28;20109;-63
2022/01/30 06:45:10;;;;;;;8.88;8.38;;;;;;;0.22;100.00;99732.59;5007707;28;20030;-63
2022/01/30 06:47:42;;;;;;;8.88;8.38;;;;;;;0.33;100.00;99721.28;5000090;28;20049;-64
2022/01/30 06:50:09;;;;;;;8.18;7.78;;;;;;;0.39;100.00;99718.16;5010130;28;20038;-63
2022/01/30 06:52:35;;;;;;;9.15;8.65;;;;;;;0.42;100.00;99713.50;4989299;28;20049;-64
2022/01/30 06:55:01;;;;;;;8.88;8.38;;;;;;;0.52;100.00;99724.00;5010013;28;20493;-63
2022/01/30 06:57:26;;;;;;;8.32;7.93;;;;;;;0.62;100.00;99719.66;5007004;28;20029;-63
2022/01/30 06:59:52;;;;;;;8.52;8.13;;;;;;;0.61;100.00;99707.56;5008920;28;20085;-63
2022/01/30 07:02:17;;;;;;;8.35;7.95;;;;;;;0.59;100.00;99700.81;5008968;28;20033;-63
2022/01/30 07:04:43;;;;;;;8.43;7.97;;;;;;;0.79;100.00;99700.75;5003794;28;20046;-64
2022/01/30 07:07:08;;;;;;;8.82;8.35;;;;;;;0.75;100.00;99688.94;5005477;28;20087;-63
2022/01/30 07:09:35;;;;;;;8.82;8.32;;;;;;;0.80;100.00;99691.13;5007142;28;20441;-64
2022/01/30 07:12:01;;;;;;;9.25;8.75;;;;;;;0.92;100.00;99687.47;5010866;28;20037;-64
2022/01/30 07:14:26;;;;;;;9.63;9.02;;;;;;;0.93;100.00;99685.69;5005117;28;20023;-62
2022/01/30 07:16:52;;;;;;;8.60;8.10;;;;;;;1.02;100.00;99666.59;5011184;28;20555;-64
2022/01/30 07:19:19;;;;;;;9.77;9.18;;;;;;;1.18;100.00;99664.31;5008564;28;20124;-64
2022/01/30 07:21:44;;;;;;;9.20;8.65;;;;;;;1.07;100.00;99667.84;5008262;28;20026;-64
2022/01/30 07:24:10;;;;;;;7.60;7.30;;;;;;;1.23;100.00;99672.53;5011016;28;20044;-64
2022/01/30 07:26:35;;;;;;;9.25;8.70;;;;;;;1.22;100.00;99670.06;5009094;28;20384;-64
2022/01/30 07:29:03;;;;;;;8.80;8.30;;;;;;;1.21;99.97;99665.81;5016906;28;20669;-63
2022/01/30 07:31:30;;;;;;;9.18;8.68;;;;;;;1.30;99.30;99663.19;5010773;28;20053;-63
2022/01/30 07:33:55;;;;;;;8.93;8.43;;;;;;;1.41;99.50;99654.41;5007098;28;20037;-63
2022/01/30 07:36:21;;;;;;;10.07;9.43;;;;;;;1.32;98.33;99652.59;5011874;28;20033;-63
2022/01/30 07:38:46;;;;;;;9.50;8.90;;;;;;;1.36;99.00;99646.97;5007852;28;20025;-64
2022/01/30 07:41:12;;;;;;;8.30;7.90;;;;;;;1.43;98.21;99636.78;5011448;28;20525;-65
2022/01/30 07:43:39;;;;;;;9.10;8.55;;;;;;;1.56;97.01;99641.75;5005666;28;20032;-63
2022/01/30 07:46:04;;;;;;;8.85;8.35;;;;;;;1.71;96.69;99635.13;5007616;28;20030;-62
2022/01/30 07:48:32;;;;;;;8.88;8.38;;;;;;;1.75;95.70;99641.72;5007558;28;20034;-63
2022/01/30 07:50:57;;;;;;;8.82;8.32;;;;;;;1.65;96.15;99640.91;5008400;28;20535;-63
2022/01/30 07:53:23;;;;;;;8.10;7.70;;;;;;;1.67;95.26;99638.97;5007011;28;20034;-63
2022/01/30 07:55:48;;;;;;;8.82;8.32;;;;;;;1.76;95.01;99640.75;5008554;28;20034;-63
2022/01/30 07:58:14;;;;;;;8.52;8.05;;;;;;;1.78;94.01;99633.59;5010044;28;20028;-63
2022/01/30 08:00:40;;;;;;;9.52;8.93;;;;;;;1.92;92.50;99627.94;5006456;28;20049;-63
2022/01/30 08:03:05;;;;;;;8.90;8.40;;;;;;;2.29;90.93;99634.97;5010575;28;20100;-63
2022/01/30 08:05:31;;;;;;;8.90;8.40;;;;;;;3.78;84.05;99630.13;5009466;28;20122;-63
2022/01/30 08:07:56;;;;;;;8.15;7.75;;;;;;;6.80;73.08;99639.25;5006875;28;20037;-63
2022/01/30 08:10:22;;;;;;;7.95;7.55;;;;;;;9.43;58.48;99641.78;5012417;28;20025;-63
2022/01/30 08:12:47;;;;;;;8.27;7.80;;;;;;;10.89;52.87;99635.69;5008009;28;20029;-64
2022/01/30 08:15:13;;;;;;;6.80;6.50;;;;;;;11.73;47.97;99633.41;5010345;28;20453;-64
2022/01/30 08:17:39;;;;;;;7.60;7.20;;;;;;;12.89;44.77;99644.25;5010604;28;20025;-64
2022/01/30 08:20:06;;;;;;;7.32;7.03;;;;;;;12.75;44.54;99642.69;5007392;28;20043;-63
2022/01/30 08:22:41;;;;;;;7.68;7.28;;;;;;;14.73;39.76;99642.25;5009208;28;20033;-64
2022/01/30 08:25:07;;;;;;;7.90;7.50;;;;;;;11.80;44.25;99639.56;5008386;28;20406;-65
2022/01/30 08:27:32;;;;;;;7.47;7.18;;;;;;;8.86;50.23;99623.06;5009480;28;20033;-64
2022/01/30 08:29:58;;;;;;;8.10;7.70;;;;;;;8.19;53.46;99625.81;4992124;28;20568;-63
2022/01/30 08:32:23;;;;;;;8.20;7.80;;;;;;;7.32;56.70;99633.34;5009887;28;20037;-64
2022/01/30 08:34:49;;;;;;;9.07;8.57;;;;;;;7.55;56.19;99648.34;4991480;28;20056;-64
2022/01/30 08:37:14;;;;;;;8.43;8.02;;;;;;;7.41;56.44;99648.09;5009808;28;20378;-63
2022/01/30 08:39:40;;;;;;;8.07;7.68;;;;;;;6.10;58.88;99641.78;5006225;28;20030;-64
2022/01/30 08:42:06;;;;;;;9.27;8.77;;;;;;;6.15;61.20;99631.56;5009292;28;20061;-64
2022/01/30 08:44:31;;;;;;;9.85;9.25;;;;;;;5.54;60.92;99633.72;4992838;28;20088;-63
2022/01/30 08:46:57;;;;;;;8.95;8.48;;;;;;;5.46;61.38;99632.91;5006699;28;20038;-64
2022/01/30 08:49:22;;;;;;;8.40;8.00;;;;;;;5.19;62.14;99631.38;5006802;28;20061;-65
2022/01/30 08:51:50;;;;;;;9.15;8.65;;;;;;;5.42;61.25;99618.44;5011290;28;20037;-63
2022/01/30 08:54:16;;;;;;;8.70;8.25;;;;;;;5.91;60.62;99624.53;5009000;28;20508;-64
2022/01/30 08:56:41;;;;;;;8.15;7.75;;;;;;;8.23;54.06;99626.28;5008110;28;20045;-64
2022/01/30 08:59:06;;;;;;;8.13;7.72;;;;;;;11.92;43.13;99629.16;5009214;28;20501;-65
2022/01/30 09:01:33;;;;;;;7.78;7.38;;;;;;;11.77;44.06;99621.34;5005508;28;20051;-64
2022/01/30 09:03:59;;;;;;;7.22;6.93;;;;;;;13.07;40.79;99616.13;5009204;28;20117;-64
2022/01/30 09:06:25;;;;;;;7.70;7.30;;;;;;;13.64;39.58;99609.84;5007465;28;20037;-64
2022/01/30 09:08:51;;;;;;;7.47;7.18;;;;;;;11.44;42.22;99607.22;5009625;28;20026;-65
2022/01/30 09:11:16;;;;;;;7.80;7.40;;;;;;;12.97;39.88;99612.06;4989606;28;20075;-65
2022/01/30 09:13:42;;;;;;;8.20;7.80;;;;;;;12.60;39.93;99600.38;4992190;28;20026;-64
2022/01/30 09:16:08;;;;;;;7.70;7.30;;;;;;;14.01;37.33;99602.75;5007556;28;20021;-64
2022/01/30 09:18:37;;;;;;;8.45;8.05;;;;;;;13.90;38.08;99603.47;5005911;28;20096;-64
2022/01/30 09:21:04;;;;;;;7.68;7.35;;;;;;;13.12;38.76;99600.31;5010277;28;20030;-63
2022/01/30 09:23:30;;;;;;;8.40;8.00;;;;;;;11.67;40.96;99589.03;4990558;28;20477;-64
2022/01/30 09:25:55;;;;;;;8.13;7.72;;;;;;;11.21;42.86;99589.81;5007105;28;20052;-63
2022/01/30 09:28:21;;;;;;;8.45;8.05;;;;;;;10.69;44.34;99583.34;5009269;28;20029;-63
2022/01/30 09:30:46;;;;;;;8.20;7.80;;;;;;;11.47;43.05;99585.59;5007222;28;20132;-64
2022/01/30 09:33:13;;;;;;;8.20;7.80;;;;;;;9.96;44.78;99580.28;5005786;28;20050;-65
2022/01/30 09:35:39;;;;;;;8.00;7.60;;;;;;;8.95;46.85;99573.50;4995174;28;20025;-65
2022/01/30 09:38:04;;;;;;;8.20;7.80;;;;;;;8.82;47.20;99566.28;4990139;28;20396;-64
2022/01/30 09:40:30;;;;;;;8.20;7.80;;;;;;;8.51;48.53;99570.97;5007197;28;20026;-64
2022/01/30 09:42:59;;;;;;;8.95;8.45;;;;;;;8.36;49.63;99571.00;5011842;28;20041;-66
2022/01/30 09:45:25;;;;;;;8.63;8.23;;;;;;;8.10;49.10;99567.97;5010876;28;20034;-64
2022/01/30 09:47:52;;;;;;;8.32;7.93;;;;;;;7.60;50.41;99556.25;5005882;28;20026;-65
2022/01/30 09:50:20;;;;;;;9.38;8.88;;;;;;;7.39;50.39;99555.13;5006920;28;20037;-64
2022/01/30 09:52:46;;;;;;;8.88;8.40;;;;;;;7.29;51.13;99536.09;5010924;28;20124;-64
2022/01/30 09:55:12;;;;;;;8.63;8.23;;;;;;;7.12;50.27;99531.91;5006329;28;20544;-64
2022/01/30 09:57:38;;;;;;;10.65;9.95;;;;;;;6.89;50.47;99524.84;5004851;28;20041;-70
2022/01/30 10:00:05;;;;;;;8.25;7.85;;;;;;;7.02;50.21;99534.81;4987599;28;20508;-65
2022/01/30 10:02:31;;;;;;;8.80;8.30;;;;;;;7.02;50.24;99534.81;5012298;28;20121;-65
2022/01/30 10:04:56;;;;;;;8.68;8.18;;;;;;;6.77;52.00;99536.78;5007081;28;20029;-65
2022/01/30 10:07:26;;;;;;;8.52;8.10;;;;;;;6.54;51.81;99517.50;5008590;28;20033;-65
2022/01/30 10:09:51;;;;;;;8.07;7.68;;;;;;;6.58;52.09;99495.06;5004028;28;20208;-65
2022/01/30 10:12:20;;;;;;;8.45;8.05;;;;;;;6.43;52.50;99504.72;5011092;28;20424;-65
2022/01/30 10:15:10;;;;;;;7.85;7.50;;;;;;;6.35;52.88;99490.59;5009438;28;20121;-65
2022/01/30 10:17:46;;;;;;;7.80;7.40;;;;;;;6.46;52.18;99491.19;5014597;28;20496;-65
2022/01/30 10:20:25;;;;;;;8.63;8.13;;;;;;;6.49;52.41;99482.94;5008537;28;20508;-64
2022/01/30 10:22:58;;;;;;;7.97;7.57;;;;;;;6.60;52.57;99500.97;5010081;28;20049;-64
2022/01/30 10:25:32;;;;;;;9.02;8.52;;;;;;;6.60;52.46;99501.78;5011131;28;20026;-64
2022/01/30 10:28:10;;;;;;;7.68;7.28;;;;;;;6.59;51.92;99502.78;4992884;28;20757;-64
2022/01/30 10:30:50;;;;;;;8.20;7.80;;;;;;;6.70;52.03;99504.22;5011017;28;20145;-65
2022/01/30 10:33:18;;;;;;;8.15;7.75;;;;;;;6.59;52.71;99504.59;5015087;28;20076;-65
2022/01/30 10:35:57;;;;;;;8.65;8.15;;;;;;;6.61;52.39;99510.50;5010030;28;20144;-64
2022/01/30 10:38:34;;;;;;;8.40;7.97;;;;;;;6.82;52.97;99512.53;5001166;28;20037;-64
2022/01/30 10:41:19;;;;;;;8.05;7.65;;;;;;;6.34;52.83;99512.66;4997250;28;20431;-64
2022/01/30 10:43:58;;;;;;;8.32;7.93;;;;;;;6.45;53.13;99518.53;5017661;28;20377;-64
2022/01/30 10:46:29;;;;;;;8.65;8.15;;;;;;;6.49;54.13;99515.38;4998834;28;20125;-65
2022/01/30 10:49:00;;;;;;;8.18;7.78;;;;;;;6.71;54.10;99510.31;5000274;28;20485;-64
2022/01/30 10:51:32;;;;;;;8.50;8.05;;;;;;;6.50;53.42;99516.19;5015883;28;20116;-63
2022/01/30 10:54:04;;;;;;;8.80;8.30;;;;;;;6.72;52.65;99511.94;5009653;28;20430;-63
2022/01/30 10:56:32;;;;;;;7.90;7.50;;;;;;;7.17;52.34;99505.84;5014528;28;20036;-64
2022/01/30 10:59:23;;;;;;;8.25;7.85;;;;;;;7.30;50.80;99494.69;5008843;28;20401;-64
2022/01/30 11:01:51;;;;;;;8.13;7.72;;;;;;;7.40;50.92;99495.25;5000550;28;20045;-64
2022/01/30 11:04:32;;;;;;;9.57;8.98;;;;;;;7.62;50.68;99483.81;5012052;28;20084;-64
2022/01/30 11:07:04;;;;;;;8.55;8.05;;;;;;;7.41;51.03;99481.88;5015189;28;20077;-65
2022/01/30 11:09:47;;;;;;;8.75;8.25;;;;;;;7.36;50.62;99484.25;5013202;28;20088;-64
2022/01/30 11:12:16;;;;;;;8.70;8.20;;;;;;;7.92;50.15;99470.59;5011845;28;20033;-64
2022/01/30 11:17:19;;;;;;;8.45;8.02;;;;;;;7.68;50.00;99474.34;5008552;28;20032;-64
2022/01/30 11:19:49;;;;;;;8.00;7.60;;;;;;;7.80;50.42;99464.16;5016857;28;20026;-64
2022/01/30 11:22:16;;;;;;;9.70;9.10;;;;;;;7.45;50.73;99469.16;5010945;28;21027;-63
2022/01/30 11:25:00;;;;;;;8.13;7.72;;;;;;;7.27;51.30;99456.31;5002439;28;20044;-63
2022/01/30 11:27:26;;;;;;;8.13;7.73;;;;;;;7.63;49.46;99445.84;5008140;28;20405;-65
2022/01/30 11:29:52;;;;;;;8.35;7.95;;;;;;;8.02;48.14;99452.69;5009433;28;20053;-64
2022/01/30 11:32:21;;;;;;;7.93;7.53;;;;;;;8.29;46.40;99446.69;5007777;28;20026;-63
2022/01/30 11:34:48;;;;;;;7.40;7.07;;;;;;;8.55;45.13;99435.63;4989440;28;20057;-63
2022/01/30 11:37:18;;;;;;;8.85;8.35;;;;;;;8.93;44.97;99438.00;5009823;28;20033;-64
2022/01/30 11:39:51;;;;;;;8.15;7.75;;;;;;;9.07;44.47;99433.63;5002420;28;20393;-64
2022/01/30 11:42:27;;;;;;;8.20;7.80;;;;;;;8.98;44.15;99427.66;4999886;28;20030;-65
2022/01/30 11:45:08;;;;;;;8.40;8.00;;;;;;;9.04;44.77;99420.81;4999402;28;20034;-64
2022/01/30 11:47:52;;;;;;;8.45;8.05;;;;;;;9.10;45.16;99409.44;5001540;28;20061;-65
2022/01/30 11:50:31;;;;;;;8.07;7.67;;;;;;;9.06;44.60;99392.31;5008375;28;20080;-65
2022/01/30 11:53:04;;;;;;;8.40;8.00;;;;;;;8.73;44.36;99400.78;5012490;28;20053;-65
2022/01/30 11:55:42;;;;;;;8.47;8.07;;;;;;;8.74;44.69;99393.69;5009812;28;20105;-64
2022/01/30 11:58:35;;;;;;;8.10;7.70;;;;;;;8.51;45.07;99391.25;5014133;28;20030;-65
2022/01/30 12:01:22;;;;;;;8.65;8.18;;;;;;;8.67;45.31;99390.19;5015199;28;20044;-64
2022/01/30 12:04:02;;;;;;;8.55;8.13;;;;;;;8.30;44.51;99392.84;5009154;28;20041;-65
2022/01/30 12:06:32;;;;;;;8.98;8.48;;;;;;;8.40;45.12;99386.47;5002290;28;20505;-65
2022/01/30 12:08:59;;;;;;;8.43;8.02;;;;;;;8.19;44.59;99395.16;5004524;28;20048;-65
2022/01/30 12:11:39;;;;;;;8.05;7.65;;;;;;;8.32;45.04;99387.38;5008770;28;20038;-65
2022/01/30 12:14:12;;;;;;;8.23;7.82;;;;;;;8.41;43.82;99377.53;5008968;28;20576;-65
2022/01/30 12:16:56;;;;;;;7.70;7.35;;;;;;;8.19;45.04;99361.63;5003403;28;20034;-64
2022/01/30 12:19:31;;;;;;;;;;;;;;;8.14;44.41;99353.44;5009845;28;20041;-65
2022/01/30 12:22:20;;;;;;;7.35;7.05;;;;;;;8.35;44.13;99357.97;5008572;28;19914;-65
2022/01/30 12:24:48;;;;;;;8.38;7.97;;;;;;;8.17;43.10;99341.72;5000948;28;20046;-66
2022/01/30 12:27:14;;;;;;;8.00;7.60;;;;;;;8.33;44.01;99349.38;5001591;28;20034;-65
2022/01/30 12:29:48;;;;;;;7.40;7.10;;;;;;;8.36;42.96;99340.28;5008717;28;20050;-65
2022/01/30 12:32:22;;;;;;;7.25;6.95;;;;;;;8.39;43.79;99347.84;5016264;28;20046;-65
2022/01/30 12:34:56;;;;;;;;;;;;;;;8.17;43.23;99347.00;5015164;28;20828;-64
2022/01/30 12:37:37;;;;;;;7.90;7.50;;;;;;;8.27;43.51;99347.47;5016824;28;19979;-64
2022/01/30 12:40:17;;;;;;;8.25;7.85;;;;;;;8.49;43.35;99345.69;5007894;28;20030;-64